createdAt,value
2023-03-17T00:01:06.808Z,13.56
2023-03-17T00:03:37.198Z,12.30
2023-03-17T00:06:05.905Z,12.26
2023-03-17T00:08:34.020Z,12.51
2023-03-17T00:11:01.764Z,12.62
2023-03-17T00:13:30.514Z,12.85
2023-03-17T00:16:01.065Z,12.45
2023-03-17T00:18:30.409Z,13.26
2023-03-17T00:20:59.868Z,12.00
2023-03-17T00:23:27.606Z,12.23
2023-03-17T00:25:55.207Z,12.53
2023-03-17T00:28:23.331Z,12.01
2023-03-17T00:30:51.607Z,12.21
2023-03-17T00:33:21.102Z,12.19
2023-03-17T00:35:49.801Z,12.55
2023-03-17T00:38:19.001Z,12.00
2023-03-17T00:43:13.659Z,12.53
2023-03-17T00:45:41.875Z,12.46
2023-03-17T00:48:11.717Z,11.95
2023-03-17T00:50:39.341Z,12.19
2023-03-17T00:53:07.354Z,12.85
2023-03-17T00:55:36.371Z,12.84
2023-03-17T00:58:04.418Z,12.18
2023-03-17T01:00:32.738Z,11.70
2023-03-17T01:03:00.571Z,11.62
2023-03-17T01:05:28.535Z,12.08
2023-03-17T01:07:57.743Z,11.76
2023-03-17T01:10:26.137Z,12.47
2023-03-17T01:12:55.743Z,12.29
2023-03-17T01:15:23.658Z,11.63
2023-03-17T01:17:51.617Z,12.23
2023-03-17T01:20:21.497Z,12.16
2023-03-17T01:22:49.611Z,11.74
2023-03-17T01:25:17.702Z,11.80
2023-03-17T01:27:46.435Z,13.38
2023-03-17T01:30:23.143Z,12.82
2023-03-17T01:32:51.009Z,12.77
2023-03-17T01:35:19.482Z,13.02
2023-03-17T01:37:47.268Z,11.96
2023-03-17T01:40:15.933Z,12.45
2023-03-17T01:42:43.658Z,11.34
2023-03-17T01:45:27.861Z,12.21
2023-03-17T01:47:57.347Z,11.65
2023-03-17T01:50:25.590Z,11.39
2023-03-17T01:52:53.727Z,10.84
2023-03-17T01:55:21.319Z,11.92
2023-03-17T01:57:53.262Z,10.68
2023-03-17T02:00:21.659Z,11.42
2023-03-17T02:02:50.772Z,11.77
2023-03-17T02:05:21.632Z,10.90
2023-03-17T02:07:49.444Z,12.32
2023-03-17T02:10:19.196Z,11.63
2023-03-17T02:12:47.211Z,12.66
2023-03-17T02:15:15.363Z,11.86
2023-03-17T02:17:43.015Z,12.28
2023-03-17T02:20:14.627Z,11.82
2023-03-17T02:22:43.705Z,11.68
2023-03-17T02:25:11.346Z,11.39
2023-03-17T02:27:39.467Z,11.30
2023-03-17T02:30:07.969Z,11.47
2023-03-17T02:32:36.177Z,11.80
2023-03-17T02:35:04.014Z,12.11
2023-03-17T02:37:31.681Z,11.57
2023-03-17T02:40:02.610Z,11.90
2023-03-17T02:42:30.591Z,12.39
2023-03-17T02:44:59.588Z,11.25
2023-03-17T02:47:27.626Z,12.20
2023-03-17T02:49:55.234Z,12.49
2023-03-17T02:52:22.839Z,11.50
2023-03-17T02:54:50.709Z,11.14
2023-03-17T02:57:19.759Z,11.64
2023-03-17T02:59:47.405Z,11.67
2023-03-17T03:02:15.375Z,11.47
2023-03-17T03:04:43.496Z,11.88
2023-03-17T03:07:11.497Z,12.24
2023-03-17T03:09:39.095Z,13.01
2023-03-17T03:12:09.824Z,10.78
2023-03-17T03:14:39.798Z,11.78
2023-03-17T03:17:07.448Z,12.12
2023-03-17T03:19:35.092Z,11.71
2023-03-17T03:22:02.725Z,12.52
2023-03-17T03:24:30.565Z,12.34
2023-03-17T03:26:58.241Z,12.06
2023-03-17T03:29:25.895Z,12.56
2023-03-17T03:31:54.960Z,12.32
2023-03-17T03:34:22.583Z,12.66
2023-03-17T03:36:50.345Z,12.35
2023-03-17T03:39:17.976Z,11.89
2023-03-17T03:41:45.704Z,12.09
2023-03-17T03:44:13.374Z,12.22
2023-03-17T03:46:41.050Z,12.78
2023-03-17T03:49:10.180Z,12.34
2023-03-17T03:51:37.795Z,12.16
2023-03-17T03:54:05.601Z,12.24
2023-03-17T03:56:33.448Z,11.93
2023-03-17T03:59:01.165Z,12.20
2023-03-17T04:01:28.818Z,11.43
2023-03-17T04:03:56.402Z,12.66
2023-03-17T04:06:25.423Z,12.63
2023-03-17T04:08:53.053Z,11.75
2023-03-17T04:11:22.221Z,12.33
2023-03-17T04:13:49.840Z,12.68
2023-03-17T04:16:17.605Z,14.70
2023-03-17T04:18:45.940Z,12.41
2023-03-17T04:21:13.705Z,12.97
2023-03-17T04:23:42.741Z,11.91
2023-03-17T04:26:10.674Z,12.31
2023-03-17T04:28:38.352Z,11.90
2023-03-17T04:31:06.341Z,11.39
2023-03-17T04:33:34.141Z,12.36
2023-03-17T04:36:03.975Z,11.20
2023-03-17T04:38:31.604Z,11.86
2023-03-17T04:41:00.726Z,11.83
2023-03-17T04:43:28.343Z,12.15
2023-03-17T04:45:56.152Z,14.80
2023-03-17T04:48:23.812Z,12.57
2023-03-17T04:50:51.463Z,12.36
2023-03-17T04:53:19.154Z,11.86
2023-03-17T04:55:47.061Z,12.35
2023-03-17T04:58:29.812Z,11.46
2023-03-17T05:00:58.295Z,11.47
2023-03-17T05:03:27.839Z,11.81
2023-03-17T05:05:55.766Z,11.58
2023-03-17T05:08:23.396Z,11.73
2023-03-17T05:10:51.152Z,12.60
2023-03-17T05:13:20.158Z,15.00
2023-03-17T05:15:47.840Z,14.56
2023-03-17T05:18:15.614Z,13.06
2023-03-17T05:20:43.215Z,12.87
2023-03-17T05:23:10.886Z,12.59
2023-03-17T05:25:38.608Z,12.22
2023-03-17T05:28:07.012Z,11.26
2023-03-17T05:30:36.587Z,11.47
2023-03-17T05:33:04.418Z,13.50
2023-03-17T05:35:32.088Z,12.25
2023-03-17T05:37:59.759Z,11.49
2023-03-17T05:40:27.379Z,12.02
2023-03-17T05:42:55.028Z,11.03
2023-03-17T05:45:22.772Z,11.91
2023-03-17T05:47:51.773Z,12.74
2023-03-17T05:50:19.566Z,12.58
2023-03-17T05:52:47.747Z,12.55
2023-03-17T05:55:15.985Z,12.20
2023-03-17T05:57:43.619Z,12.73
2023-03-17T06:00:12.799Z,12.66
2023-03-17T06:02:40.638Z,12.45
2023-03-17T06:05:10.081Z,13.06
2023-03-17T06:07:50.862Z,11.79
2023-03-17T06:10:19.691Z,12.37
2023-03-17T06:12:47.319Z,12.00
2023-03-17T06:15:16.550Z,12.32
2023-03-17T06:17:44.456Z,11.81
2023-03-17T06:20:14.239Z,12.40
2023-03-17T06:23:00.484Z,11.44
2023-03-17T06:25:30.542Z,11.07
2023-03-17T06:27:58.309Z,13.48
2023-03-17T06:30:25.918Z,12.13
2023-03-17T06:32:53.592Z,13.08
2023-03-17T06:35:23.319Z,12.45
2023-03-17T06:37:50.961Z,11.80
2023-03-17T06:40:18.626Z,13.45
2023-03-17T06:42:46.698Z,12.04
2023-03-17T06:45:15.168Z,11.66
2023-03-17T06:47:43.559Z,12.49
2023-03-17T06:50:12.256Z,12.34
2023-03-17T06:52:41.677Z,13.29
2023-03-17T06:55:09.643Z,11.90
2023-03-17T06:57:37.489Z,11.49
2023-03-17T07:00:06.284Z,12.36
2023-03-17T07:02:34.509Z,12.80
2023-03-17T07:05:03.755Z,11.73
2023-03-17T07:07:31.571Z,13.99
2023-03-17T07:10:00.716Z,11.40
2023-03-17T07:12:28.848Z,11.62
2023-03-17T07:14:56.467Z,11.94
2023-03-17T07:17:24.159Z,11.62
2023-03-17T07:19:52.353Z,12.13
2023-03-17T07:22:20.028Z,11.79
2023-03-17T07:24:49.063Z,12.36
2023-03-17T07:27:18.828Z,12.88
2023-03-17T07:29:47.450Z,14.20
2023-03-17T07:32:15.412Z,13.07
2023-03-17T07:34:43.292Z,13.61
2023-03-17T07:37:12.164Z,12.80
2023-03-17T07:39:40.213Z,12.45
2023-03-17T07:42:08.186Z,13.36
2023-03-17T07:44:39.178Z,13.16
2023-03-17T07:47:07.046Z,13.28
2023-03-17T07:49:41.671Z,13.41
2023-03-17T07:52:10.455Z,12.41
2023-03-17T07:54:42.283Z,13.16
2023-03-17T07:57:10.551Z,12.97
2023-03-17T07:59:39.932Z,12.92
2023-03-17T08:02:07.678Z,12.91
2023-03-17T08:04:35.548Z,14.42
2023-03-17T08:07:03.186Z,13.51
2023-03-17T08:09:30.813Z,13.17
2023-03-17T08:11:58.414Z,14.40
2023-03-17T08:14:26.562Z,15.75
2023-03-17T08:16:55.719Z,15.28
2023-03-17T08:19:24.235Z,14.35
2023-03-17T08:21:51.988Z,14.19
2023-03-17T08:24:19.671Z,14.55
2023-03-17T08:26:48.872Z,15.51
2023-03-17T08:29:16.605Z,15.72
2023-03-17T08:31:46.561Z,14.51
2023-03-17T08:34:16.523Z,15.31
2023-03-17T08:36:44.148Z,14.98
2023-03-17T08:39:11.798Z,16.90
2023-03-17T08:41:39.653Z,18.86
2023-03-17T08:44:08.750Z,17.10
2023-03-17T08:46:36.580Z,16.82
2023-03-17T08:49:04.303Z,16.67
2023-03-17T08:51:34.315Z,15.52
2023-03-17T08:54:02.000Z,15.15
2023-03-17T08:56:29.642Z,14.98
2023-03-17T08:58:57.303Z,15.90
2023-03-17T09:01:25.519Z,15.01
2023-03-17T09:03:54.626Z,15.50
2023-03-17T09:06:22.386Z,15.34
2023-03-17T09:08:55.349Z,16.09
2023-03-17T09:11:24.163Z,17.29
2023-03-17T09:13:51.903Z,17.50
2023-03-17T09:16:19.719Z,16.52
2023-03-17T09:18:47.705Z,15.22
2023-03-17T09:21:16.118Z,16.10
2023-03-17T09:23:43.796Z,15.36
2023-03-17T09:26:12.957Z,17.08
2023-03-17T09:28:40.706Z,18.57
2023-03-17T09:31:11.290Z,18.05
2023-03-17T09:33:39.201Z,18.52
2023-03-17T09:36:07.511Z,16.20
2023-03-17T09:38:35.659Z,17.23
2023-03-17T09:41:06.393Z,19.14
2023-03-17T09:43:37.090Z,17.79
2023-03-17T09:46:09.429Z,17.79
2023-03-17T09:48:46.445Z,19.51
2023-03-17T09:51:14.291Z,18.80
2023-03-17T09:53:43.753Z,18.39
2023-03-17T09:56:12.651Z,18.98
2023-03-17T09:58:41.890Z,18.02
2023-03-17T10:01:10.341Z,18.94
2023-03-17T10:03:39.188Z,18.39
2023-03-17T10:06:16.220Z,17.75
2023-03-17T10:08:46.006Z,17.65
2023-03-17T10:11:15.214Z,18.94
2023-03-17T10:13:50.315Z,17.60
2023-03-17T10:16:19.092Z,17.92
2023-03-17T10:18:48.160Z,19.04
2023-03-17T10:21:17.261Z,21.00
2023-03-17T10:23:45.047Z,17.92
2023-03-17T10:26:15.679Z,19.87
2023-03-17T10:28:43.395Z,17.89
2023-03-17T10:31:17.372Z,17.94
2023-03-17T10:33:45.285Z,17.79
2023-03-17T10:36:15.892Z,19.90
2023-03-17T10:38:47.862Z,19.76
2023-03-17T10:41:16.634Z,19.29
2023-03-17T10:43:45.782Z,19.09
2023-03-17T10:46:19.688Z,19.50
2023-03-17T10:48:50.693Z,20.57
2023-03-17T10:51:20.425Z,20.48
2023-03-17T10:53:48.081Z,20.22
2023-03-17T10:56:20.376Z,19.71
2023-03-17T10:58:48.887Z,20.35
2023-03-17T11:01:17.809Z,20.85
2023-03-17T11:03:47.004Z,21.14
2023-03-17T11:06:15.885Z,21.33
2023-03-17T11:08:44.104Z,20.97
2023-03-17T11:11:23.023Z,20.42
2023-03-17T11:13:50.726Z,21.58
2023-03-17T11:16:19.824Z,19.66
2023-03-17T11:18:49.243Z,21.31
2023-03-17T11:21:17.470Z,21.99
2023-03-17T11:23:52.185Z,21.30
2023-03-17T11:26:33.188Z,19.34
2023-03-17T11:29:05.944Z,20.99
2023-03-17T11:31:34.147Z,20.77
2023-03-17T11:34:05.253Z,22.75
2023-03-17T11:36:37.357Z,22.20
2023-03-17T11:39:08.867Z,21.39
2023-03-17T11:41:41.367Z,22.57
2023-03-17T11:44:13.464Z,20.82
2023-03-17T11:46:42.979Z,20.50
2023-03-17T11:49:14.689Z,20.67
2023-03-17T11:51:46.639Z,21.82
2023-03-17T11:54:15.850Z,22.16
2023-03-17T11:56:44.095Z,22.80
2023-03-17T11:59:14.001Z,22.95
2023-03-17T12:01:45.716Z,21.41
2023-03-17T12:04:18.437Z,21.96
2023-03-17T12:06:47.431Z,23.35
2023-03-17T12:09:18.134Z,23.62
2023-03-17T12:11:45.754Z,22.98
2023-03-17T12:14:20.077Z,21.86
2023-03-17T12:16:48.610Z,22.88
2023-03-17T12:19:19.266Z,23.45
2023-03-17T12:21:50.186Z,21.56
2023-03-17T12:24:18.698Z,23.85
2023-03-17T12:26:49.168Z,22.86
2023-03-17T12:29:18.165Z,24.32
2023-03-17T12:31:46.669Z,23.57
2023-03-17T12:34:15.852Z,22.57
2023-03-17T12:36:45.022Z,22.08
2023-03-17T12:39:13.487Z,21.61
2023-03-17T12:41:44.257Z,21.66
2023-03-17T12:44:15.778Z,21.52
2023-03-17T12:47:01.295Z,20.92
2023-03-17T12:49:42.107Z,22.68
2023-03-17T12:52:23.485Z,23.51
2023-03-17T12:54:51.922Z,21.55
2023-03-17T12:57:19.910Z,23.22
2023-03-17T12:59:48.022Z,21.57
2023-03-17T13:02:17.635Z,21.38
2023-03-17T13:04:49.131Z,21.81
2023-03-17T13:07:17.271Z,22.41
2023-03-17T13:09:50.654Z,22.69
2023-03-17T13:12:52.488Z,22.73
2023-03-17T13:15:38.553Z,22.55
2023-03-17T13:18:23.409Z,22.34
2023-03-17T13:20:53.256Z,23.34
2023-03-17T13:23:22.538Z,24.00
2023-03-17T13:25:53.458Z,22.38
2023-03-17T13:28:25.735Z,22.18
2023-03-17T13:30:58.251Z,22.90
2023-03-17T13:33:29.201Z,22.82
2023-03-17T13:36:03.054Z,20.82
2023-03-17T13:38:39.766Z,21.66
2023-03-17T13:41:15.392Z,22.00
2023-03-17T13:43:47.381Z,22.38
2023-03-17T13:46:22.466Z,22.87
2023-03-17T13:48:50.159Z,23.13
2023-03-17T13:51:20.563Z,22.33
2023-03-17T13:53:49.084Z,22.41
2023-03-17T13:56:19.616Z,21.04
2023-03-17T13:58:54.831Z,22.71
2023-03-17T14:01:23.723Z,24.34
2023-03-17T14:03:53.829Z,23.57
2023-03-17T14:06:22.244Z,23.04
2023-03-17T14:08:50.317Z,23.04
2023-03-17T14:11:22.400Z,24.84
2023-03-17T14:13:50.891Z,23.12
2023-03-17T14:16:20.124Z,22.67
2023-03-17T14:18:49.639Z,23.63
2023-03-17T14:21:21.972Z,21.97
2023-03-17T14:23:53.798Z,21.95
2023-03-17T14:26:22.809Z,24.27
2023-03-17T14:28:50.427Z,24.22
2023-03-17T14:31:21.067Z,26.05
2023-03-17T14:33:49.337Z,24.28
2023-03-17T14:36:17.521Z,25.21
2023-03-17T14:38:47.441Z,25.10
2023-03-17T14:41:18.925Z,25.60
2023-03-17T14:43:48.203Z,26.07
2023-03-17T14:46:16.379Z,26.24
2023-03-17T14:48:44.552Z,25.18
2023-03-17T14:51:25.130Z,23.84
2023-03-17T14:53:53.413Z,24.32
2023-03-17T14:56:22.964Z,24.57
2023-03-17T14:58:52.739Z,22.96
2023-03-17T15:01:21.690Z,23.01
2023-03-17T15:03:54.617Z,22.93
2023-03-17T15:06:23.315Z,23.55
2023-03-17T15:08:51.217Z,24.88
2023-03-17T15:11:20.370Z,24.32
2023-03-17T15:13:48.112Z,23.95
2023-03-17T15:16:18.790Z,24.88
2023-03-17T15:18:46.751Z,24.41
2023-03-17T15:21:24.569Z,23.27
2023-03-17T15:23:52.200Z,23.49
2023-03-17T15:26:23.460Z,23.78
2023-03-17T15:28:51.078Z,24.80
2023-03-17T15:31:30.569Z,23.76
2023-03-17T15:33:58.645Z,23.83
2023-03-17T15:36:32.725Z,22.74
2023-03-17T15:39:00.766Z,23.11
2023-03-17T15:41:28.540Z,23.76
2023-03-17T15:43:56.756Z,22.91
2023-03-17T15:46:30.193Z,22.82
2023-03-17T15:49:00.454Z,23.76
2023-03-17T15:51:28.120Z,24.02
2023-03-17T15:53:55.806Z,24.77
2023-03-17T15:56:23.417Z,23.27
2023-03-17T15:58:52.363Z,24.64
2023-03-17T16:01:20.554Z,24.01
2023-03-17T16:03:49.683Z,24.12
2023-03-17T16:06:18.533Z,23.33
2023-03-17T16:08:46.464Z,24.51
2023-03-17T16:11:18.611Z,24.01
2023-03-17T16:13:46.815Z,23.59
2023-03-17T16:16:19.488Z,23.54
2023-03-17T16:18:47.571Z,23.78
2023-03-17T16:21:16.753Z,25.56
2023-03-17T16:23:44.484Z,24.73
2023-03-17T16:26:16.122Z,22.73
2023-03-17T16:28:45.341Z,23.74
2023-03-17T16:31:20.265Z,24.29
2023-03-17T16:33:48.175Z,23.74
2023-03-17T16:36:18.068Z,23.58
2023-03-17T16:38:50.603Z,23.60
2023-03-17T16:41:20.447Z,23.02
2023-03-17T16:43:51.064Z,22.81
2023-03-17T16:46:19.165Z,22.38
2023-03-17T16:48:48.246Z,22.64
2023-03-17T16:51:17.460Z,22.61
2023-03-17T16:53:45.406Z,22.10
2023-03-17T16:56:15.450Z,22.02
2023-03-17T16:58:43.177Z,23.00
2023-03-17T17:01:12.679Z,22.64
2023-03-17T17:03:40.489Z,22.08
2023-03-17T17:06:08.821Z,21.26
2023-03-17T17:08:37.854Z,22.06
2023-03-17T17:11:06.483Z,21.41
2023-03-17T17:13:34.114Z,21.38
2023-03-17T17:16:01.782Z,21.33
2023-03-17T17:18:29.427Z,21.51
2023-03-17T17:20:57.755Z,21.79
2023-03-17T17:23:25.869Z,21.76
2023-03-17T17:25:54.987Z,20.96
2023-03-17T17:28:23.467Z,20.70
2023-03-17T17:30:51.339Z,21.01
2023-03-17T17:33:19.172Z,20.74
2023-03-17T17:35:47.101Z,20.33
2023-03-17T17:38:17.489Z,22.03
2023-03-17T17:40:45.119Z,21.54
2023-03-17T17:43:14.211Z,20.82
2023-03-17T17:45:42.117Z,21.13
2023-03-17T17:48:10.460Z,21.57
2023-03-17T17:50:38.071Z,21.95
2023-03-17T17:53:08.641Z,20.30
2023-03-17T17:55:36.326Z,20.54
2023-03-17T17:58:03.944Z,22.79
2023-03-17T18:00:33.370Z,21.79
2023-03-17T18:03:01.109Z,20.68
2023-03-17T18:05:28.788Z,20.89
2023-03-17T18:07:56.408Z,21.59
2023-03-17T18:10:25.748Z,22.03
2023-03-17T18:12:53.440Z,21.01
2023-03-17T18:15:21.863Z,20.53
2023-03-17T18:17:51.511Z,21.26
2023-03-17T18:20:20.131Z,21.13
2023-03-17T18:22:47.847Z,21.14
2023-03-17T18:25:15.843Z,21.55
2023-03-17T18:27:43.701Z,21.09
2023-03-17T18:30:13.190Z,20.95
2023-03-17T18:32:41.051Z,21.28
2023-03-17T18:35:11.697Z,21.59
2023-03-17T18:37:39.324Z,20.83
2023-03-17T18:40:17.258Z,20.33
2023-03-17T18:42:46.142Z,20.43
2023-03-17T18:45:14.005Z,20.60
2023-03-17T18:47:41.973Z,20.87
2023-03-17T18:50:12.303Z,20.45
2023-03-17T18:52:40.970Z,21.15
2023-03-17T18:55:09.072Z,20.83
2023-03-17T18:57:37.076Z,19.99
2023-03-17T19:00:05.145Z,20.34
2023-03-17T19:02:33.272Z,21.85
2023-03-17T19:05:00.977Z,19.94
2023-03-17T19:07:30.047Z,20.02
2023-03-17T19:09:57.690Z,20.50
2023-03-17T19:12:25.349Z,19.56
2023-03-17T19:14:53.040Z,20.40
2023-03-17T19:17:20.677Z,20.51
2023-03-17T19:19:50.244Z,18.92
2023-03-17T19:22:17.953Z,19.43
2023-03-17T19:24:48.054Z,19.21
2023-03-17T19:27:15.896Z,21.46
2023-03-17T19:29:43.543Z,19.72
2023-03-17T19:32:11.165Z,19.93
2023-03-17T19:34:38.889Z,19.16
2023-03-17T19:37:06.640Z,19.44
2023-03-17T19:39:34.537Z,18.50
2023-03-17T19:42:03.541Z,18.79
2023-03-17T19:44:31.161Z,18.70
2023-03-17T19:47:01.577Z,18.80
2023-03-17T19:49:29.327Z,19.05
2023-03-17T19:51:56.893Z,18.76
2023-03-17T19:54:24.557Z,18.56
2023-03-17T19:56:52.569Z,19.59
2023-03-17T19:59:21.560Z,18.88
2023-03-17T20:01:49.586Z,21.92
2023-03-17T20:04:20.916Z,20.91
2023-03-17T20:06:48.733Z,19.19
2023-03-17T20:09:16.587Z,20.32
2023-03-17T20:11:44.219Z,20.07
2023-03-17T20:14:11.864Z,20.67
2023-03-17T20:16:41.796Z,21.69
2023-03-17T20:19:09.698Z,21.68
2023-03-17T20:21:37.674Z,22.21
2023-03-17T20:24:05.594Z,21.34
2023-03-17T20:26:33.909Z,21.70
2023-03-17T20:29:01.744Z,23.23
2023-03-17T20:31:29.738Z,21.22
2023-03-17T20:33:58.868Z,21.08
2023-03-17T20:36:26.985Z,19.78
2023-03-17T20:38:54.639Z,20.52
2023-03-17T20:41:22.383Z,20.48
2023-03-17T20:43:50.060Z,21.36
2023-03-17T20:46:18.298Z,19.96
2023-03-17T20:48:48.083Z,19.78
2023-03-17T20:51:17.331Z,19.53
2023-03-17T20:53:46.223Z,19.58
2023-03-17T20:56:15.298Z,18.98
2023-03-17T20:58:46.928Z,19.89
2023-03-17T21:01:14.681Z,20.38
2023-03-17T21:03:42.546Z,19.93
2023-03-17T21:06:10.613Z,20.04
2023-03-17T21:08:39.684Z,20.06
2023-03-17T21:11:12.052Z,20.04
2023-03-17T21:13:40.055Z,20.05
2023-03-17T21:16:08.476Z,20.09
2023-03-17T21:18:36.092Z,19.59
2023-03-17T21:21:03.758Z,19.16
2023-03-17T21:23:31.848Z,19.65
2023-03-17T21:26:00.866Z,19.89
2023-03-17T21:28:28.482Z,19.92
2023-03-17T21:30:56.169Z,18.50
2023-03-17T21:33:23.831Z,19.53
2023-03-17T21:35:52.256Z,19.44
2023-03-17T21:38:19.960Z,20.04
2023-03-17T21:40:48.607Z,20.37
2023-03-17T21:43:17.543Z,19.99
2023-03-17T21:45:45.236Z,20.10
2023-03-17T21:48:12.932Z,19.27
2023-03-17T21:50:40.536Z,19.23
2023-03-17T21:53:09.159Z,19.41
2023-03-17T21:55:36.921Z,19.76
2023-03-17T21:58:04.542Z,18.81
2023-03-17T22:00:44.651Z,18.31
2023-03-17T22:03:13.474Z,18.93
2023-03-17T22:05:41.265Z,18.62
2023-03-17T22:08:09.304Z,18.37
2023-03-17T22:10:36.961Z,18.84
2023-03-17T22:13:04.561Z,19.00
2023-03-17T22:15:33.586Z,18.82
2023-03-17T22:18:01.271Z,19.60
2023-03-17T22:20:30.504Z,18.85
2023-03-17T22:22:58.288Z,18.46
2023-03-17T22:25:25.914Z,18.64
2023-03-17T22:27:53.636Z,19.24
2023-03-17T22:30:21.467Z,19.25
2023-03-17T22:32:51.004Z,18.90
2023-03-17T22:35:19.567Z,18.91
2023-03-17T22:37:47.376Z,18.60
2023-03-17T22:40:15.417Z,19.27
2023-03-17T22:42:43.091Z,20.06
2023-03-17T22:45:13.081Z,19.29
2023-03-17T22:47:41.026Z,19.29
2023-03-17T22:50:10.782Z,19.27
2023-03-17T22:52:38.707Z,19.48
2023-03-17T22:55:07.594Z,18.78
2023-03-17T22:57:35.275Z,18.63
2023-03-17T23:00:05.417Z,18.65
2023-03-17T23:02:33.074Z,18.87
2023-03-17T23:05:00.721Z,18.30
2023-03-17T23:07:31.761Z,18.37
2023-03-17T23:09:59.438Z,18.79
2023-03-17T23:12:28.226Z,18.69
2023-03-17T23:14:55.938Z,18.90
2023-03-17T23:17:23.592Z,18.55
2023-03-17T23:19:51.270Z,18.18
2023-03-17T23:22:18.945Z,19.00
2023-03-17T23:24:47.922Z,18.39
2023-03-17T23:27:15.764Z,18.11
2023-03-17T23:29:43.353Z,18.12
2023-03-17T23:32:12.102Z,18.04
2023-03-17T23:34:40.419Z,18.55
2023-03-17T23:37:08.523Z,18.75
2023-03-17T23:39:36.165Z,18.30
2023-03-17T23:42:05.447Z,18.54
2023-03-17T23:44:33.018Z,18.29
2023-03-17T23:47:00.642Z,18.71
2023-03-17T23:49:28.442Z,17.54
2023-03-17T23:51:56.146Z,18.53
2023-03-17T23:54:24.474Z,18.13
2023-03-17T23:56:52.660Z,17.87
2023-03-17T23:59:21.843Z,17.64
